Elnora, IN (47529)

3:38 AM EDT en Octubre 31, 2014 (GMT -0400)
KINSANDB2 | Change Station
CLOSE
Current Station
Estación meteorológica personal
Location: Sandborn, IN
Altura: 479 ft
Estaciones meteorológicas cercanas

Alt 479 ft 38.90 °N, 87.18 °W | Updated 2 minutes ago

Nublado
Nublado
46.6 ° F
Sensación térmica 47 ° F
N
0.0
Viento Variable Viento desde NE
Gusts 0.0 mph

Hoy
Alta -- | Baja -- ° F
--% Posibilidad de precipitaciones
Ayer
Alta -- | Baja -- ° F
Precip. -- pul
8:14 AM 6:48 PM
Cuarto creciente, 52% visible
Presión 30.03 pul
Visibilidad 7.0 Millas
Nubes Nubes dispersas 2800 ft
Muy nublado 4100 ft
Nublado 4800 ft
Vientos helados 47 ° F
Punto de rocío 46 ° F
Humedad 96%
Precipitaciones 0.09 pul
Espesor de la nieve No disponible.
UV 0 de una escala de 12
Polen .60 de una escala de 12
Calidad del aire No disponible.
Flu Activity No disponible.
METAR KDCY 310715Z AUTO 00000KT 7SM -RA SCT028 BKN041 OVC048 08/08 A3003 RMK AO2 P0001 T00760075

More Conditions Fewer Conditions

Presión 30.03 pul
Visibilidad 7.0 Millas
Nubes Nubes dispersas 2800 ft
Muy nublado 4100 ft
Nublado 4800 ft
Vientos helados 47 ° F
Punto de rocío 46 ° F
Humedad 96%
Precipitaciones 0.09 pul
Espesor de la nieve No disponible.
UV 0 de una escala de 12
Polen .60 de una escala de 12
Calidad del aire No disponible.
Flu Activity No disponible.
METAR KDCY 310715Z AUTO 00000KT 7SM -RA SCT028 BKN041 OVC048 08/08 A3003 RMK AO2 P0001 T00760075

More Conditions Fewer Conditions

10-Day Weather Forecast

Almanac

Astronomía

Oct. 31, 2014 Salida Puesta
Hora real
Crepúsculo civil
Crepúsculo náutico
Crepúsculo astronómico
Luna
Horas de luz
Horas de luz
Tomorrow will be .
, % of the Moon is Illuminated

Extremos de hoy

Máximos del estado Bajos del estado

Community

WunderPhotos

Upload Photos

1,766,573 ¡fotos cargadas!

WunderBlogs® & News

Nearby

Calidad del aire

  Calidad del aire Índice AQ Contaminante
Not available.

Grosos de nieve

Estación Profundido Altura

Actividad de terremotos

Ciudad Distance Mag. Tiempo y dato
Magnitud mínima muestra es 2,5.

Temperaturas de aguas costeras

Lugar Temperatura

Estaciones meteorológicas cercanas